Time;durP1;ratioP1;P1;durP2;ratioP2;P2;SDS_P1;SDS_P2;PMS_P1;PMS_P2;Temp;Humidity;BMP_temperature;BMP_pressure;BME280_temperature;BME280_humidity;BME280_pressure;Samples;Min_cycle;Max_cycle;Signal;HPM_P1;HPM_P2
2023/04/08 00:01:57;;;;;;;2.47;0.63;;;;;;;17.10;65.26;101479.78;5092909;28;20035;-60
2023/04/08 00:04:23;;;;;;;0.68;0.32;;;;;;;17.14;63.92;101484.50;5093676;28;20035;-58
2023/04/08 00:06:49;;;;;;;2.08;0.60;;;;;;;17.18;63.93;101475.91;5094119;28;20104;-59
2023/04/08 00:09:16;;;;;;;1.17;0.40;;;;;;;17.30;63.28;101479.44;5093665;28;20070;-59
2023/04/08 00:11:42;;;;;;;1.45;0.40;;;;;;;17.07;63.29;101467.56;5098890;28;20023;-59
2023/04/08 00:14:08;;;;;;;1.40;0.52;;;;;;;17.00;64.16;101469.56;5112448;28;20062;-58
2023/04/08 00:16:34;;;;;;;1.30;0.80;;;;;;;16.88;63.61;101477.66;5094218;28;20060;-58
2023/04/08 00:19:01;;;;;;;2.90;0.90;;;;;;;17.00;63.60;101483.06;5094213;28;20074;-59
2023/04/08 00:21:27;;;;;;;1.17;0.52;;;;;;;16.92;64.17;101485.28;5079739;28;20043;-58
2023/04/08 00:23:53;;;;;;;2.30;1.10;;;;;;;16.69;64.63;101486.03;5073600;28;20103;-58
2023/04/08 00:26:19;;;;;;;2.90;0.82;;;;;;;16.84;64.16;101484.56;5101412;28;20032;-59
2023/04/08 00:28:46;;;;;;;2.53;0.85;;;;;;;16.64;64.00;101492.94;5114414;28;20035;-59
2023/04/08 00:31:12;;;;;;;3.55;0.90;;;;;;;16.60;63.83;101493.63;5110885;28;20510;-58
2023/04/08 00:33:38;;;;;;;3.92;1.10;;;;;;;16.78;63.33;101493.63;5112289;28;20028;-58
2023/04/08 00:36:05;;;;;;;4.75;0.95;;;;;;;16.76;63.93;101486.78;5114332;28;20054;-59
2023/04/08 00:38:31;;;;;;;1.85;0.90;;;;;;;16.83;64.36;101488.34;5110317;28;20085;-58
2023/04/08 00:40:57;;;;;;;2.92;1.17;;;;;;;16.77;62.93;101489.25;5093739;28;20040;-58
2023/04/08 00:43:24;;;;;;;2.20;1.13;;;;;;;16.87;63.39;101484.09;5092293;28;20353;-58
2023/04/08 00:45:50;;;;;;;2.42;0.52;;;;;;;16.89;63.29;101489.28;5073335;28;20032;-58
2023/04/08 00:48:16;;;;;;;2.55;0.50;;;;;;;16.89;64.11;101492.81;5073370;28;20484;-59
2023/04/08 00:50:43;;;;;;;1.92;0.68;;;;;;;16.86;61.71;101487.03;5111273;28;20060;-58
2023/04/08 00:53:09;;;;;;;2.97;0.60;;;;;;;17.00;60.54;101493.06;5112562;28;20039;-58
2023/04/08 00:55:35;;;;;;;2.53;0.60;;;;;;;16.89;61.69;101500.94;5094248;28;20464;-58
2023/04/08 00:58:02;;;;;;;4.05;0.80;;;;;;;16.74;61.09;101499.69;5092459;28;20032;-58
2023/04/08 01:00:30;;;;;;;1.48;0.50;;;;;;;16.77;61.31;101502.78;5072583;28;20476;-58
2023/04/08 01:03:26;;;;;;;1.50;0.43;;;;;;;16.93;59.89;101503.97;5077424;28;20499;-58
2023/04/08 01:05:59;;;;;;;1.83;0.43;;;;;;;16.77;60.63;101515.47;5072583;28;20043;-58
2023/04/08 01:08:30;;;;;;;6.47;0.40;;;;;;;16.85;59.85;101515.13;5085887;28;20028;-58
2023/04/08 01:11:00;;;;;;;1.65;0.40;;;;;;;16.77;61.06;101515.47;5091468;28;20028;-58
2023/04/08 01:13:34;;;;;;;2.80;0.80;;;;;;;16.78;60.76;101519.81;5104096;28;20075;-58
2023/04/08 01:16:01;;;;;;;5.07;0.90;;;;;;;16.73;60.51;101522.41;5083475;28;20024;-58
2023/04/08 01:18:29;;;;;;;1.38;0.63;;;;;;;16.40;61.18;101520.94;5085269;28;20115;-59
2023/04/08 01:20:57;;;;;;;3.08;0.82;;;;;;;16.52;60.85;101524.50;5092736;28;20036;-58
2023/04/08 01:23:40;;;;;;;1.35;0.73;;;;;;;16.42;61.55;101526.09;5090386;28;20059;-58
2023/04/08 01:26:06;;;;;;;2.90;0.60;;;;;;;16.45;61.05;101521.06;5092484;28;20024;-58
2023/04/08 01:28:34;;;;;;;2.75;0.63;;;;;;;16.44;62.06;101529.41;5090761;28;20032;-58
2023/04/08 01:31:02;;;;;;;1.55;0.55;;;;;;;16.34;61.73;101530.78;5092405;28;20081;-58
2023/04/08 01:33:30;;;;;;;5.55;1.33;;;;;;;16.29;61.63;101514.41;5103923;28;20039;-58
2023/04/08 01:35:58;;;;;;;1.65;0.60;;;;;;;16.15;61.73;101522.91;5112022;28;20103;-58
2023/04/08 01:38:25;;;;;;;1.80;0.40;;;;;;;16.19;60.66;101526.81;5096916;28;20106;-58
2023/04/08 01:40:52;;;;;;;2.58;0.65;;;;;;;16.02;60.20;101518.50;5092509;28;20028;-58
2023/04/08 01:43:19;;;;;;;4.47;1.10;;;;;;;15.81;62.16;101517.06;5101608;28;20027;-59
2023/04/08 01:45:47;;;;;;;2.90;0.70;;;;;;;15.73;63.29;101525.47;5112451;28;20051;-58
2023/04/08 01:48:15;;;;;;;3.25;0.80;;;;;;;15.69;62.23;101526.94;5109257;28;20031;-57
2023/04/08 01:50:44;;;;;;;3.28;0.77;;;;;;;15.61;62.46;101527.22;5112657;28;20089;-58
2023/04/08 01:53:11;;;;;;;2.47;0.80;;;;;;;15.71;62.47;101533.78;5080687;28;20475;-59
2023/04/08 01:55:40;;;;;;;2.97;0.50;;;;;;;15.56;61.65;101534.09;5092012;28;20107;-57
2023/04/08 01:58:10;;;;;;;2.08;0.75;;;;;;;15.58;61.98;101539.28;5098347;28;20577;-57
2023/04/08 02:00:41;;;;;;;3.65;0.85;;;;;;;15.64;62.78;101537.59;5112184;28;20027;-59
2023/04/08 02:03:11;;;;;;;2.17;0.65;;;;;;;15.61;61.91;101536.13;5107987;28;20042;-59
2023/04/08 02:05:38;;;;;;;3.15;0.60;;;;;;;15.68;61.36;101538.78;5112113;28;20024;-59
2023/04/08 02:08:04;;;;;;;3.88;0.90;;;;;;;15.38;61.23;101539.47;5087089;28;20077;-58
2023/04/08 02:10:30;;;;;;;1.90;0.80;;;;;;;15.10;62.20;101541.75;5091437;28;20437;-59
2023/04/08 02:12:57;;;;;;;1.65;0.60;;;;;;;15.08;63.21;101544.66;5075442;28;20847;-58
2023/04/08 02:15:28;;;;;;;2.63;0.55;;;;;;;15.03;61.86;101549.88;5076853;28;20039;-61
2023/04/08 02:18:02;;;;;;;2.28;0.63;;;;;;;14.95;62.49;101548.28;5082380;28;20438;-59
2023/04/08 02:20:38;;;;;;;3.10;0.70;;;;;;;14.85;63.16;101542.53;5086848;28;20036;-59
2023/04/08 02:23:13;;;;;;;4.65;0.90;;;;;;;14.77;63.26;101550.91;5076666;28;20047;-58
2023/04/08 02:25:43;;;;;;;3.05;0.85;;;;;;;14.84;62.82;101548.97;5075485;28;20064;-58
2023/04/08 02:28:11;;;;;;;2.30;1.08;;;;;;;14.72;63.23;101546.16;5071896;28;20043;-59
2023/04/08 02:30:44;;;;;;;3.42;0.90;;;;;;;14.57;64.00;101547.47;5072145;28;20033;-58
2023/04/08 02:33:13;;;;;;;2.30;0.90;;;;;;;14.61;63.77;101551.41;5072075;28;20373;-58
2023/04/08 02:35:40;;;;;;;2.25;0.80;;;;;;;14.45;64.53;101544.59;5071763;28;20024;-59
2023/04/08 02:38:07;;;;;;;2.67;0.90;;;;;;;14.32;64.88;101539.25;5070478;28;20033;-51
2023/04/08 02:40:34;;;;;;;3.17;0.93;;;;;;;14.46;64.56;101546.25;5071764;28;20521;-47
2023/04/08 02:43:00;;;;;;;5.13;1.10;;;;;;;14.38;64.23;101549.16;5071708;28;20074;-46
2023/04/08 02:45:30;;;;;;;2.63;0.90;;;;;;;14.25;64.19;101539.28;5071511;28;20515;-46
2023/04/08 02:47:58;;;;;;;3.33;0.88;;;;;;;14.22;64.79;101545.13;5074192;28;20668;-48
2023/04/08 02:50:24;;;;;;;2.90;1.00;;;;;;;14.34;64.65;101545.28;5076030;28;20025;-48
2023/04/08 02:52:50;;;;;;;4.60;1.13;;;;;;;14.31;64.50;101545.69;5075434;28;20029;-45
2023/04/08 02:55:17;;;;;;;4.18;1.02;;;;;;;14.43;64.62;101550.19;5075693;28;20020;-45
2023/04/08 02:57:43;;;;;;;2.70;0.80;;;;;;;14.36;65.05;101548.56;5075777;28;20035;-46
2023/04/08 03:00:10;;;;;;;3.42;1.08;;;;;;;14.29;64.90;101550.47;5075326;28;20366;-56
2023/04/08 03:02:36;;;;;;;3.67;0.98;;;;;;;14.16;65.36;101560.25;5074569;28;20112;-57
2023/04/08 03:05:04;;;;;;;2.35;1.00;;;;;;;14.19;66.13;101562.50;5078159;28;20028;-57
2023/04/08 03:07:31;;;;;;;3.92;1.08;;;;;;;13.96;66.54;101554.91;5078168;28;20484;-58
2023/04/08 03:09:57;;;;;;;4.18;1.23;;;;;;;13.98;66.48;101552.81;5075045;28;20096;-59
2023/04/08 03:12:25;;;;;;;3.95;1.05;;;;;;;13.96;66.07;101557.59;5078083;28;20393;-58
2023/04/08 03:14:53;;;;;;;5.60;1.20;;;;;;;13.94;66.29;101556.19;5093977;28;20055;-57
2023/04/08 03:17:20;;;;;;;4.10;1.20;;;;;;;13.84;66.37;101569.22;5091004;28;20033;-57
2023/04/08 03:19:46;;;;;;;6.68;1.60;;;;;;;13.72;67.10;101563.66;5087434;28;20097;-57
2023/04/08 03:22:13;;;;;;;5.63;1.40;;;;;;;13.62;67.55;101576.72;5086601;28;20073;-57
2023/04/08 03:24:40;;;;;;;2.72;0.90;;;;;;;13.65;67.97;101577.09;5094954;28;20047;-57
2023/04/08 03:27:07;;;;;;;3.42;1.10;;;;;;;13.61;68.39;101581.25;5095059;28;20024;-57
2023/04/08 03:29:33;;;;;;;4.40;0.90;;;;;;;13.64;68.42;101590.78;5095210;28;20024;-57
2023/04/08 03:32:00;;;;;;;4.72;1.30;;;;;;;13.70;68.44;101592.63;5095074;28;20095;-58
2023/04/08 03:34:26;;;;;;;6.22;1.48;;;;;;;13.70;68.47;101595.31;5094843;28;20028;-57
2023/04/08 03:36:52;;;;;;;3.22;1.17;;;;;;;13.70;68.36;101598.81;5094684;28;20388;-57
2023/04/08 03:39:18;;;;;;;6.15;1.40;;;;;;;13.63;68.60;101606.09;5095525;28;20326;-57
2023/04/08 03:41:45;;;;;;;5.40;1.35;;;;;;;13.66;68.60;101599.47;5094970;28;20078;-57
2023/04/08 03:44:11;;;;;;;4.97;1.50;;;;;;;13.62;68.85;101603.59;5094702;28;20024;-57
2023/04/08 03:46:37;;;;;;;6.55;1.98;;;;;;;13.60;69.03;101608.34;5094777;28;20036;-57
2023/04/08 03:49:03;;;;;;;2.72;1.50;;;;;;;13.61;69.14;101618.91;5090085;28;20128;-57
2023/04/08 03:51:30;;;;;;;5.45;1.90;;;;;;;13.69;68.58;101629.47;5077149;28;20059;-57
2023/04/08 03:53:56;;;;;;;5.10;1.77;;;;;;;13.54;69.10;101631.53;5077634;28;20516;-57
2023/04/08 03:56:23;;;;;;;4.22;1.52;;;;;;;13.52;69.20;101641.66;5091411;28;20149;-57
2023/04/08 03:58:50;;;;;;;7.03;1.35;;;;;;;13.33;69.77;101637.94;5073430;28;20025;-57
2023/04/08 04:01:16;;;;;;;7.95;1.40;;;;;;;13.53;69.15;101637.13;5094364;28;20043;-58
2023/04/08 04:03:42;;;;;;;7.18;1.25;;;;;;;13.13;70.28;101653.97;5092905;28;20069;-57
2023/04/08 04:06:09;;;;;;;5.93;1.38;;;;;;;13.18;70.14;101648.00;5094140;28;20104;-57
2023/04/08 04:08:35;;;;;;;2.88;0.90;;;;;;;13.17;69.62;101670.53;5088288;28;20538;-57
2023/04/08 04:11:01;;;;;;;4.35;1.02;;;;;;;12.85;69.48;101672.91;5094286;28;20020;-57
2023/04/08 04:13:27;;;;;;;4.07;1.20;;;;;;;12.78;69.36;101673.94;5106035;28;20377;-57
2023/04/08 04:15:54;;;;;;;4.90;1.27;;;;;;;12.70;69.39;101682.97;5114523;28;20024;-57
2023/04/08 04:18:20;;;;;;;5.63;1.00;;;;;;;12.32;70.55;101685.22;5114629;28;20027;-57
2023/04/08 04:20:46;;;;;;;3.50;1.10;;;;;;;12.29;70.17;101678.41;5098155;28;20093;-57
2023/04/08 04:23:12;;;;;;;7.60;1.10;;;;;;;12.39;69.68;101683.44;5078732;28;20377;-57
2023/04/08 04:25:43;;;;;;;6.05;1.60;;;;;;;12.40;68.98;101685.91;5075201;28;20025;-57
2023/04/08 04:28:09;;;;;;;2.10;1.00;;;;;;;12.32;68.82;101691.41;5082849;28;20059;-58
2023/04/08 04:30:39;;;;;;;3.38;0.90;;;;;;;12.23;68.50;101699.84;5089796;28;20483;-57
2023/04/08 04:33:06;;;;;;;6.70;1.30;;;;;;;12.28;68.14;101697.41;5093349;28;20027;-57
2023/04/08 04:35:32;;;;;;;3.00;0.90;;;;;;;12.27;68.61;101691.22;5086685;28;20043;-58
2023/04/08 04:37:59;;;;;;;2.00;0.82;;;;;;;12.26;68.17;101700.25;5093608;28;20535;-58
2023/04/08 04:40:25;;;;;;;3.00;0.90;;;;;;;12.17;68.93;101706.81;5093901;28;20062;-57
2023/04/08 04:42:52;;;;;;;4.03;1.08;;;;;;;12.08;69.62;101706.13;5093081;28;20020;-58
2023/04/08 04:45:18;;;;;;;6.53;1.27;;;;;;;12.32;67.87;101715.56;5093525;28;20054;-57
2023/04/08 04:47:44;;;;;;;5.70;1.45;;;;;;;12.17;67.56;101711.38;5093935;28;20024;-57
2023/04/08 04:50:10;;;;;;;2.67;1.02;;;;;;;12.10;68.03;101711.28;5093498;28;20146;-58
2023/04/08 04:52:37;;;;;;;4.28;1.10;;;;;;;12.09;68.03;101709.63;5092979;28;20028;-57
2023/04/08 04:55:03;;;;;;;5.80;1.15;;;;;;;12.07;68.31;101706.31;5105801;28;20042;-58
2023/04/08 04:57:30;;;;;;;5.25;1.10;;;;;;;12.04;68.67;101699.47;5113739;28;20020;-58
2023/04/08 04:59:56;;;;;;;8.25;1.13;;;;;;;12.01;68.31;101694.53;5110609;27;20027;-58
2023/04/08 05:02:22;;;;;;;2.05;0.82;;;;;;;12.21;68.34;101696.50;5113389;28;20110;-57
2023/04/08 05:04:48;;;;;;;3.63;0.70;;;;;;;12.37;68.23;101693.53;5080384;28;20472;-57
2023/04/08 05:07:15;;;;;;;4.20;0.95;;;;;;;12.38;68.38;101692.50;5072888;28;20020;-57
2023/04/08 05:09:41;;;;;;;3.97;0.80;;;;;;;12.43;68.11;101696.25;5088371;28;20032;-57
2023/04/08 05:12:07;;;;;;;2.85;1.08;;;;;;;12.60;66.97;101695.91;5092936;28;20381;-57
2023/04/08 05:14:34;;;;;;;2.97;1.00;;;;;;;12.56;65.80;101694.69;5091252;28;20434;-57
2023/04/08 05:17:00;;;;;;;1.98;0.90;;;;;;;12.41;66.00;101694.78;5092947;28;20450;-58
2023/04/08 05:19:26;;;;;;;2.38;0.50;;;;;;;12.30;65.63;101693.47;5081222;28;20028;-58
2023/04/08 05:21:52;;;;;;;1.98;0.70;;;;;;;12.48;65.30;101697.50;5072779;28;20087;-58
2023/04/08 05:24:18;;;;;;;6.57;0.98;;;;;;;12.47;65.63;101693.16;5084770;28;20032;-57
2023/04/08 05:26:46;;;;;;;3.00;0.90;;;;;;;12.48;66.24;101700.19;5079041;28;20105;-57
2023/04/08 05:29:12;;;;;;;1.70;0.93;;;;;;;12.53;65.86;101695.88;5092659;28;20032;-57
2023/04/08 05:31:39;;;;;;;4.85;1.00;;;;;;;12.55;64.96;101688.47;5092963;28;20055;-57
2023/04/08 05:34:05;;;;;;;3.78;1.00;;;;;;;12.51;65.01;101700.63;5092271;28;20032;-57
2023/04/08 05:36:31;;;;;;;3.70;0.73;;;;;;;12.60;65.15;101695.91;5092880;28;20030;-57
2023/04/08 05:38:58;;;;;;;3.08;1.30;;;;;;;12.60;65.17;101683.34;5089834;28;20111;-57
2023/04/08 05:41:24;;;;;;;5.18;1.25;;;;;;;12.47;66.15;101695.84;5071802;28;20077;-57
2023/04/08 05:43:50;;;;;;;3.13;1.08;;;;;;;12.60;63.88;101698.59;5086726;28;20150;-57
2023/04/08 05:46:16;;;;;;;3.08;1.00;;;;;;;12.26;65.08;101705.63;5092678;28;20016;-57
2023/04/08 05:48:43;;;;;;;1.25;0.73;;;;;;;12.02;66.19;101703.41;5092427;28;20031;-57
2023/04/08 05:51:16;;;;;;;3.15;0.90;;;;;;;12.02;65.28;101701.53;5092401;28;20530;-57
2023/04/08 05:53:45;;;;;;;2.78;0.85;;;;;;;11.90;66.18;101703.09;5092021;28;20533;-57
2023/04/08 05:56:12;;;;;;;1.92;0.73;;;;;;;11.76;67.14;101694.06;5110918;28;20414;-57
2023/04/08 05:58:38;;;;;;;1.70;0.55;;;;;;;11.76;67.23;101683.31;5112616;28;20036;-57
2023/04/08 06:01:06;;;;;;;3.33;0.70;;;;;;;11.62;67.69;101692.28;5112623;28;20528;-57
2023/04/08 06:03:32;;;;;;;2.63;0.85;;;;;;;11.70;67.26;101697.50;5111991;28;20023;-58
2023/04/08 06:05:58;;;;;;;3.58;0.65;;;;;;;11.70;67.02;101694.00;5112647;28;20088;-57
2023/04/08 06:08:25;;;;;;;2.60;0.80;;;;;;;11.77;67.18;101692.19;5112528;28;20072;-57
2023/04/08 06:10:51;;;;;;;1.80;0.70;;;;;;;11.85;66.99;101706.34;5112554;28;20421;-57
2023/04/08 06:13:19;;;;;;;1.95;0.70;;;;;;;11.83;67.34;101705.72;5111321;28;20084;-57
2023/04/08 06:15:47;;;;;;;4.32;0.90;;;;;;;11.74;68.37;101697.97;5077754;28;20108;-57
2023/04/08 06:18:15;;;;;;;3.13;0.90;;;;;;;12.03;67.14;101697.00;5071899;28;20021;-57
2023/04/08 06:20:41;;;;;;;3.58;0.80;;;;;;;12.11;67.13;101691.50;5090166;28;20085;-57
2023/04/08 06:23:08;;;;;;;4.00;1.00;;;;;;;11.98;67.89;101700.25;5098356;28;20027;-57
2023/04/08 06:25:34;;;;;;;4.32;0.85;;;;;;;11.64;69.44;101698.28;5098656;28;20028;-57
2023/04/08 06:28:00;;;;;;;2.42;0.95;;;;;;;11.58;70.31;101696.38;5098839;28;20027;-57
2023/04/08 06:30:26;;;;;;;2.97;0.93;;;;;;;11.50;70.54;101688.47;5119109;27;20067;-57
2023/04/08 06:32:52;;;;;;;3.78;0.80;;;;;;;11.48;70.63;101693.16;5119112;27;20049;-57
2023/04/08 06:35:19;;;;;;;3.78;0.90;;;;;;;11.52;70.21;101687.25;5108159;27;20028;-57
2023/04/08 06:37:45;;;;;;;3.45;0.77;;;;;;;11.55;70.57;101691.41;5078079;28;20025;-57
2023/04/08 06:40:11;;;;;;;2.20;0.70;;;;;;;11.51;70.98;101692.81;5077971;28;20025;-57
2023/04/08 06:42:39;;;;;;;6.78;1.10;;;;;;;11.39;71.47;101689.81;5091627;28;20028;-57
2023/04/08 06:45:06;;;;;;;1.90;0.70;;;;;;;11.36;71.56;101691.00;5113678;28;20482;-58
2023/04/08 06:47:32;;;;;;;2.33;0.80;;;;;;;11.42;71.49;101685.91;5119318;27;20023;-57
2023/04/08 06:49:59;;;;;;;3.45;1.00;;;;;;;11.44;71.61;101689.19;5108014;27;20365;-57
2023/04/08 06:52:26;;;;;;;2.53;0.98;;;;;;;11.51;71.53;101682.09;5118786;27;20016;-57
2023/04/08 06:54:52;;;;;;;3.28;0.80;;;;;;;11.60;71.21;101680.91;5081764;28;20384;-57
2023/04/08 06:57:18;;;;;;;5.40;1.40;;;;;;;11.40;71.86;101679.91;5078388;28;20370;-57
2023/04/08 06:59:45;;;;;;;1.60;0.80;;;;;;;11.39;72.08;101688.97;5080246;28;20043;-57
2023/04/08 07:02:11;;;;;;;4.28;1.67;;;;;;;11.30;72.30;101698.97;5077949;28;20051;-57
2023/04/08 07:04:37;;;;;;;2.15;1.00;;;;;;;11.38;72.18;101701.53;5110319;28;20030;-57
2023/04/08 07:07:04;;;;;;;3.30;1.17;;;;;;;11.62;71.66;101694.97;5118943;28;20024;-57
2023/04/08 07:09:31;;;;;;;4.35;1.40;;;;;;;11.49;71.56;101694.81;5093021;27;20032;-57
2023/04/08 07:11:58;;;;;;;2.33;1.20;;;;;;;11.35;72.04;101705.41;5077683;28;20021;-57
2023/04/08 07:14:24;;;;;;;2.15;1.05;;;;;;;11.29;72.33;101703.50;5082180;28;20044;-57
2023/04/08 07:16:51;;;;;;;3.05;1.27;;;;;;;11.56;71.83;101714.50;5078052;28;20024;-57
2023/04/08 07:19:17;;;;;;;4.82;1.30;;;;;;;11.46;72.05;101719.34;5081582;28;20028;-57
2023/04/08 07:21:43;;;;;;;6.07;1.20;;;;;;;11.28;72.49;101731.34;5077906;28;20117;-57
2023/04/08 07:24:09;;;;;;;2.55;0.80;;;;;;;11.15;73.01;101722.28;5093848;28;20064;-57
2023/04/08 07:26:37;;;;;;;3.60;1.13;;;;;;;11.05;73.41;101710.03;5098188;28;20024;-57
2023/04/08 07:29:04;;;;;;;2.78;0.73;;;;;;;11.06;73.27;101708.19;5089379;28;20619;-57
2023/04/08 07:31:30;;;;;;;3.80;1.30;;;;;;;11.16;73.37;101718.59;5084704;28;20020;-57
2023/04/08 07:33:56;;;;;;;3.83;1.00;;;;;;;11.20;73.38;101714.53;5094099;28;20388;-57
2023/04/08 07:36:22;;;;;;;2.50;0.75;;;;;;;10.81;74.89;101699.63;5088911;28;20023;-58
2023/04/08 07:38:49;;;;;;;1.65;0.70;;;;;;;10.72;75.38;101711.47;5083881;28;20020;-57
2023/04/08 07:41:15;;;;;;;1.70;0.80;;;;;;;10.86;74.86;101723.19;5094818;28;20043;-57
2023/04/08 07:43:41;;;;;;;3.55;0.98;;;;;;;10.96;74.68;101719.19;5094443;28;20070;-57
2023/04/08 07:46:07;;;;;;;2.03;1.30;;;;;;;10.96;74.51;101713.00;5094708;28;20063;-57
2023/04/08 07:48:34;;;;;;;2.03;1.30;;;;;;;10.94;74.72;101705.16;5094483;28;20051;-57
2023/04/08 07:51:05;;;;;;;2.42;1.20;;;;;;;11.02;74.50;101702.38;5094672;28;20118;-57
2023/04/08 07:53:32;;;;;;;6.20;2.15;;;;;;;10.59;76.20;101712.09;5094957;28;20020;-57
2023/04/08 07:55:58;;;;;;;4.18;1.42;;;;;;;10.70;75.89;101713.47;5094431;28;20046;-57
2023/04/08 07:58:25;;;;;;;3.92;1.60;;;;;;;10.81;75.34;101710.34;5094761;28;20028;-57
2023/04/08 08:00:52;;;;;;;2.80;1.15;;;;;;;10.82;75.12;101698.59;5094645;28;20075;-57
2023/04/08 08:03:18;;;;;;;4.53;1.45;;;;;;;10.90;74.78;101692.34;5090909;28;20032;-57
2023/04/08 08:05:45;;;;;;;3.65;1.45;;;;;;;10.79;75.16;101694.47;5086144;28;20554;-57
2023/04/08 08:08:11;;;;;;;2.83;1.20;;;;;;;10.76;74.84;101705.53;5073906;28;20448;-57
2023/04/08 08:10:38;;;;;;;4.00;1.40;;;;;;;10.70;75.00;101708.97;5080730;28;20116;-57
2023/04/08 08:13:06;;;;;;;3.80;1.60;;;;;;;10.16;77.32;101714.53;5093900;28;20027;-56
2023/04/08 08:15:33;;;;;;;3.10;1.70;;;;;;;9.92;78.77;101717.41;5094297;28;20054;-57
2023/04/08 08:17:59;;;;;;;3.35;1.60;;;;;;;9.99;78.69;101719.22;5094011;28;20095;-57
2023/04/08 08:20:25;;;;;;;3.60;1.40;;;;;;;10.24;77.74;101722.50;5094002;28;20496;-57
2023/04/08 08:22:52;;;;;;;2.88;1.42;;;;;;;10.30;76.97;101723.63;5093917;28;20049;-57
2023/04/08 08:25:18;;;;;;;3.25;1.10;;;;;;;10.32;76.68;101721.59;5093934;28;20064;-57
2023/04/08 08:27:44;;;;;;;4.78;1.48;;;;;;;10.32;76.98;101725.09;5094449;28;20024;-57
2023/04/08 08:30:11;;;;;;;2.22;1.00;;;;;;;10.24;77.42;101725.19;5093869;28;20465;-57
2023/04/08 08:32:37;;;;;;;4.35;1.13;;;;;;;10.28;77.28;101721.13;5093597;28;20027;-57
2023/04/08 08:35:03;;;;;;;6.10;1.60;;;;;;;10.35;77.29;101723.91;5093949;28;20028;-57
2023/04/08 08:37:30;;;;;;;3.67;1.33;;;;;;;9.88;79.03;101729.47;5093604;28;20028;-57
2023/04/08 08:39:56;;;;;;;6.18;1.70;;;;;;;9.95;79.21;101735.78;5093457;28;20032;-57
2023/04/08 08:42:24;;;;;;;2.65;1.10;;;;;;;10.11;78.37;101724.13;5093111;28;20027;-57
2023/04/08 08:44:50;;;;;;;2.85;1.05;;;;;;;10.19;78.12;101721.34;5110406;28;20027;-57
2023/04/08 08:47:17;;;;;;;7.20;1.40;;;;;;;9.86;79.83;101726.16;5113666;28;20023;-57
2023/04/08 08:49:45;;;;;;;4.15;1.58;;;;;;;9.73;80.10;101732.13;5075269;28;20158;-56
2023/04/08 08:52:15;;;;;;;6.43;1.35;;;;;;;9.74;80.55;101728.44;5077870;28;20020;-57
2023/04/08 08:54:42;;;;;;;4.65;1.23;;;;;;;9.72;80.63;101738.47;5090800;28;20024;-57
2023/04/08 08:57:20;;;;;;;4.13;1.33;;;;;;;9.73;80.77;101740.97;5093135;28;20142;-56
2023/04/08 08:59:46;;;;;;;4.50;1.10;;;;;;;9.72;80.78;101735.81;5095798;28;20164;-57
2023/04/08 09:02:30;;;;;;;2.30;1.05;;;;;;;9.94;80.21;101743.00;5113328;28;20024;-57
2023/04/08 09:05:02;;;;;;;4.00;1.35;;;;;;;9.87;80.37;101738.53;5104389;28;20016;-57
2023/04/08 09:07:30;;;;;;;2.38;1.10;;;;;;;9.94;79.42;101728.78;5071991;28;20028;-57
2023/04/08 09:09:57;;;;;;;3.72;1.30;;;;;;;9.91;80.08;101726.47;5076151;28;20023;-57
2023/04/08 09:12:27;;;;;;;3.47;1.30;;;;;;;10.15;78.93;101725.41;5071910;28;20035;-57
2023/04/08 09:15:04;;;;;;;3.97;1.45;;;;;;;9.99;79.53;101726.38;5076928;28;20358;-57
2023/04/08 09:17:35;;;;;;;1.73;1.00;;;;;;;9.97;79.76;101729.25;5113228;28;20077;-57
2023/04/08 09:20:13;;;;;;;2.28;1.08;;;;;;;9.98;79.50;101730.91;5107722;28;20035;-57
2023/04/08 09:23:09;;;;;;;3.55;1.40;;;;;;;9.94;79.83;101740.31;5071214;28;20062;-57
2023/04/08 09:25:37;;;;;;;3.03;1.10;;;;;;;9.98;79.78;101740.75;5078246;28;20046;-57
2023/04/08 09:28:04;;;;;;;2.72;1.20;;;;;;;9.97;79.91;101734.59;5113171;28;20027;-57
2023/04/08 09:30:32;;;;;;;4.45;1.40;;;;;;;9.96;80.28;101740.13;5102869;28;20032;-57
2023/04/08 09:33:00;;;;;;;2.08;0.90;;;;;;;10.05;80.05;101731.03;5072287;28;20082;-56
2023/04/08 09:35:26;;;;;;;2.13;1.30;;;;;;;10.04;80.06;101732.00;5101400;28;20024;-57
2023/04/08 09:37:52;;;;;;;2.47;1.02;;;;;;;10.18;79.76;101715.19;5073382;28;20032;-57
2023/04/08 09:40:18;;;;;;;2.85;1.10;;;;;;;10.05;80.25;101704.28;5078563;28;20043;-56
2023/04/08 09:42:47;;;;;;;2.72;0.90;;;;;;;10.07;80.06;101694.22;5070560;28;20444;-56
2023/04/08 09:45:17;;;;;;;2.03;1.05;;;;;;;10.07;79.71;101688.88;5072274;28;20070;-57
2023/04/08 09:47:56;;;;;;;3.05;1.05;;;;;;;10.05;80.18;101694.41;5078605;28;20028;-56
2023/04/08 09:50:30;;;;;;;3.00;0.90;;;;;;;10.03;80.29;101703.63;5072108;28;20020;-56
2023/04/08 09:53:25;;;;;;;1.92;0.98;;;;;;;10.12;80.11;101709.72;5074360;28;20078;-56
2023/04/08 09:55:56;;;;;;;2.78;1.02;;;;;;;10.25;79.69;101708.13;5064537;28;20032;-56
2023/04/08 09:58:28;;;;;;;2.90;1.35;;;;;;;10.32;79.25;101710.88;5095450;28;20031;-56
2023/04/08 10:00:55;;;;;;;3.08;1.10;;;;;;;10.58;77.99;101715.78;5112436;28;20027;-56
2023/04/08 10:03:27;;;;;;;2.40;1.08;;;;;;;10.48;78.09;101709.88;5083136;28;20037;-56
2023/04/08 10:05:55;;;;;;;3.33;1.10;;;;;;;10.34;78.75;101710.72;5072364;28;20492;-56
2023/04/08 10:08:24;;;;;;;4.00;1.17;;;;;;;10.28;79.13;101699.72;5074673;28;20093;-56
2023/04/08 10:10:50;;;;;;;4.00;1.70;;;;;;;10.17;79.63;101696.66;5071811;28;20033;-56
2023/04/08 10:13:17;;;;;;;2.35;1.20;;;;;;;10.31;79.24;101698.53;5072889;28;20067;-56
2023/04/08 10:15:46;;;;;;;7.68;1.58;;;;;;;10.10;79.87;101704.53;5092189;28;20357;-56
2023/04/08 10:18:21;;;;;;;3.65;1.15;;;;;;;9.76;81.55;101702.34;5084307;28;20027;-56
2023/04/08 10:20:48;;;;;;;3.17;1.48;;;;;;;9.18;85.26;101704.59;5071733;28;20454;-56
2023/04/08 10:23:16;;;;;;;6.35;1.20;;;;;;;9.46;84.28;101704.06;5073666;28;20074;-56
2023/04/08 10:25:44;;;;;;;3.92;1.48;;;;;;;9.45;84.24;101707.75;5071951;28;20051;-56
2023/04/08 10:28:18;;;;;;;2.53;1.10;;;;;;;9.58;84.28;101708.00;5074934;28;20376;-56
2023/04/08 10:30:52;;;;;;;3.08;1.20;;;;;;;9.84;82.91;101706.81;5089041;28;20094;-56
2023/04/08 10:33:19;;;;;;;6.45;1.13;;;;;;;9.92;82.55;101702.19;5080697;28;20032;-56
2023/04/08 10:35:48;;;;;;;2.05;1.00;;;;;;;9.96;82.34;101706.19;5071857;28;20021;-56
2023/04/08 10:38:16;;;;;;;2.75;1.42;;;;;;;9.57;83.80;101711.69;5080811;28;20066;-56
2023/04/08 10:40:43;;;;;;;1.63;0.80;;;;;;;9.96;82.71;101706.19;5091744;28;20028;-56
2023/04/08 10:43:11;;;;;;;7.63;1.42;;;;;;;10.04;81.85;101718.66;5102684;28;20028;-56
2023/04/08 10:45:41;;;;;;;3.50;1.23;;;;;;;10.34;79.55;101721.44;5112649;28;20108;-55
2023/04/08 10:48:24;;;;;;;3.92;1.30;;;;;;;10.11;80.31;101716.94;5093495;28;20419;-56
2023/04/08 10:50:58;;;;;;;4.95;1.20;;;;;;;10.05;81.22;101718.47;5091898;28;20472;-56
2023/04/08 10:53:35;;;;;;;4.25;1.50;;;;;;;9.94;81.75;101724.25;5102648;28;20028;-56
2023/04/08 10:56:08;;;;;;;2.60;1.23;;;;;;;10.03;81.65;101733.03;5112026;28;20092;-56
2023/04/08 10:58:55;;;;;;;1.95;0.73;;;;;;;10.03;81.99;101727.69;5109186;28;20031;-56
2023/04/08 11:01:22;;;;;;;2.90;1.30;;;;;;;10.07;81.85;101731.66;5110264;28;20451;-56
2023/04/08 11:03:49;;;;;;;2.97;0.98;;;;;;;10.14;81.55;101719.22;5110331;28;20080;-56
2023/04/08 11:06:16;;;;;;;3.50;1.10;;;;;;;10.10;81.96;101715.25;5112122;28;20051;-56
2023/04/08 11:08:46;;;;;;;4.85;1.35;;;;;;;10.08;82.13;101719.94;5097715;28;20299;-56
2023/04/08 11:11:12;;;;;;;1.48;0.93;;;;;;;10.15;81.73;101709.34;5098098;28;20386;-56
2023/04/08 11:13:44;;;;;;;3.13;1.08;;;;;;;10.19;81.62;101710.66;5115362;28;20063;-56
2023/04/08 11:16:11;;;;;;;2.60;1.30;;;;;;;10.00;82.05;101712.84;5112651;28;20035;-56
2023/04/08 11:18:38;;;;;;;2.17;1.00;;;;;;;9.89;82.43;101704.44;5115693;28;20503;-56
2023/04/08 11:21:09;;;;;;;6.32;1.55;;;;;;;10.00;82.22;101701.31;5104872;28;20029;-56
2023/04/08 11:23:36;;;;;;;2.80;1.05;;;;;;;10.11;81.27;101692.84;5094850;28;20361;-56
2023/04/08 11:26:03;;;;;;;3.42;1.40;;;;;;;10.01;81.31;101693.09;5098244;28;20024;-56
2023/04/08 11:28:30;;;;;;;4.65;0.93;;;;;;;10.01;81.13;101687.75;5115380;28;20024;-56
2023/04/08 11:30:57;;;;;;;3.70;0.90;;;;;;;9.76;82.28;101687.13;5112746;28;20099;-56